Terminal Aerodrome Forecast
Issued by NWS

Home | Current Version | Previous Version | Text Only | Print | Product List | Glossary On
Versions: 1 2 3 4 5 6 7 8 9 10 11 12 13 14
000
FTUS43 KLSX 310500
TAFCPS
TAF
KCPS 310520Z 3106/0106 35007KT P6SM BKN080
      TEMPO 3106/3108 4SM BR
     FM311100 33013G21KT P6SM OVC030
     FM311400 33019G29KT P6SM SCT050
     FM010000 32009KT P6SM SKC=

USA.gov is the U.S. government's official web portal to all federal, state and local government web resources and services.